sensor_id;sensor_type;location;lat;lon;timestamp;P1;durP1;ratioP1;P2;durP2;ratioP2
60203;SDS011;46068;52.132;4.618;2022-11-20T02:14:23;16.10;;;7.93;;
60203;SDS011;46068;52.132;4.618;2022-11-20T02:16:49;15.07;;;7.37;;
60203;SDS011;46068;52.132;4.618;2022-11-20T02:19:17;13.80;;;7.60;;
60203;SDS011;46068;52.132;4.618;2022-11-20T02:21:46;14.07;;;7.90;;
60203;SDS011;46068;52.132;4.618;2022-11-20T02:24:16;14.13;;;7.70;;
60203;SDS011;46068;52.132;4.618;2022-11-20T02:26:45;14.63;;;7.50;;
60203;SDS011;46068;52.132;4.618;2022-11-20T02:29:12;13.53;;;7.53;;
60203;SDS011;46068;52.132;4.618;2022-11-20T02:31:40;13.13;;;7.50;;
60203;SDS011;46068;52.132;4.618;2022-11-20T02:34:07;14.10;;;7.17;;
60203;SDS011;46068;52.132;4.618;2022-11-20T02:36:33;14.70;;;7.17;;
60203;SDS011;46068;52.132;4.618;2022-11-20T02:46:21;14.90;;;7.70;;
60203;SDS011;46068;52.132;4.618;2022-11-20T02:48:47;12.13;;;7.03;;
60203;SDS011;46068;52.132;4.618;2022-11-20T02:51:13;14.23;;;7.47;;
60203;SDS011;46068;52.132;4.618;2022-11-20T02:53:40;13.67;;;7.77;;
60203;SDS011;46068;52.132;4.618;2022-11-20T02:56:06;16.17;;;7.70;;
60203;SDS011;46068;52.132;4.618;2022-11-20T02:58:32;14.60;;;7.10;;
60203;SDS011;46068;52.132;4.618;2022-11-20T03:00:59;11.80;;;6.47;;
60203;SDS011;46068;52.132;4.618;2022-11-20T03:03:26;16.80;;;8.40;;
60203;SDS011;46068;52.132;4.618;2022-11-20T03:05:53;16.43;;;8.63;;
60203;SDS011;46068;52.132;4.618;2022-11-20T03:08:19;15.17;;;8.13;;
60203;SDS011;46068;52.132;4.618;2022-11-20T03:10:45;18.10;;;7.70;;
60203;SDS011;46068;52.132;4.618;2022-11-20T03:20:31;12.83;;;7.13;;
60203;SDS011;46068;52.132;4.618;2022-11-20T03:22:58;12.80;;;7.20;;
60203;SDS011;46068;52.132;4.618;2022-11-20T03:25:24;16.47;;;8.23;;
60203;SDS011;46068;52.132;4.618;2022-11-20T03:27:50;13.67;;;7.67;;
60203;SDS011;46068;52.132;4.618;2022-11-20T03:30:16;14.83;;;7.97;;
60203;SDS011;46068;52.132;4.618;2022-11-20T03:32:43;16.27;;;7.80;;
60203;SDS011;46068;52.132;4.618;2022-11-20T03:35:09;14.10;;;8.00;;
60203;SDS011;46068;52.132;4.618;2022-11-20T03:37:37;17.17;;;8.53;;
60203;SDS011;46068;52.132;4.618;2022-11-20T03:40:03;15.97;;;7.60;;
60203;SDS011;46068;52.132;4.618;2022-11-20T03:42:30;15.40;;;7.70;;
60203;SDS011;46068;52.132;4.618;2022-11-20T03:45:11;19.77;;;8.83;;
60203;SDS011;46068;52.132;4.618;2022-11-20T03:47:38;15.63;;;8.07;;
60203;SDS011;46068;52.132;4.618;2022-11-20T03:50:04;14.67;;;8.13;;
60203;SDS011;46068;52.132;4.618;2022-11-20T03:52:31;14.50;;;8.73;;
60203;SDS011;46068;52.132;4.618;2022-11-20T03:54:58;16.40;;;8.43;;
60203;SDS011;46068;52.132;4.618;2022-11-20T03:57:25;18.87;;;8.93;;
60203;SDS011;46068;52.132;4.618;2022-11-20T03:59:51;16.27;;;8.53;;
60203;SDS011;46068;52.132;4.618;2022-11-20T04:02:17;16.63;;;8.77;;
60203;SDS011;46068;52.132;4.618;2022-11-20T04:04:44;18.20;;;9.13;;
60203;SDS011;46068;52.132;4.618;2022-11-20T04:07:10;18.63;;;9.37;;
60203;SDS011;46068;52.132;4.618;2022-11-20T04:09:36;16.27;;;8.30;;
60203;SDS011;46068;52.132;4.618;2022-11-20T04:12:04;15.50;;;8.20;;
60203;SDS011;46068;52.132;4.618;2022-11-20T04:14:30;18.50;;;8.73;;
60203;SDS011;46068;52.132;4.618;2022-11-20T04:16:57;17.27;;;8.77;;
60203;SDS011;46068;52.132;4.618;2022-11-20T04:19:23;13.10;;;7.57;;
60203;SDS011;46068;52.132;4.618;2022-11-20T04:21:49;15.53;;;8.53;;
60203;SDS011;46068;52.132;4.618;2022-11-20T04:24:16;17.17;;;8.60;;
60203;SDS011;46068;52.132;4.618;2022-11-20T04:26:42;15.80;;;8.10;;
60203;SDS011;46068;52.132;4.618;2022-11-20T04:29:11;18.03;;;8.63;;
60203;SDS011;46068;52.132;4.618;2022-11-20T04:31:37;18.70;;;8.77;;
60203;SDS011;46068;52.132;4.618;2022-11-20T04:34:04;16.17;;;7.67;;
60203;SDS011;46068;52.132;4.618;2022-11-20T04:36:31;17.53;;;8.57;;
60203;SDS011;46068;52.132;4.618;2022-11-20T04:38:59;17.27;;;8.60;;
60203;SDS011;46068;52.132;4.618;2022-11-20T04:41:26;16.80;;;8.67;;
60203;SDS011;46068;52.132;4.618;2022-11-20T04:43:54;16.63;;;8.40;;
60203;SDS011;46068;52.132;4.618;2022-11-20T04:46:25;15.10;;;8.50;;
60203;SDS011;46068;52.132;4.618;2022-11-20T04:48:52;18.57;;;8.13;;
60203;SDS011;46068;52.132;4.618;2022-11-20T07:37:01;18.25;;;9.80;;
60203;SDS011;46068;52.132;4.618;2022-11-20T07:39:27;19.80;;;10.10;;
60203;SDS011;46068;52.132;4.618;2022-11-20T07:41:53;18.93;;;9.97;;
60203;SDS011;46068;52.132;4.618;2022-11-20T07:44:20;19.67;;;10.73;;
60203;SDS011;46068;52.132;4.618;2022-11-20T07:46:46;19.40;;;10.17;;
60203;SDS011;46068;52.132;4.618;2022-11-20T07:49:12;20.73;;;12.75;;
60203;SDS011;46068;52.132;4.618;2022-11-20T07:51:38;19.60;;;10.73;;
60203;SDS011;46068;52.132;4.618;2022-11-20T07:54:06;20.07;;;10.23;;
60203;SDS011;46068;52.132;4.618;2022-11-20T07:56:32;18.30;;;10.20;;
60203;SDS011;46068;52.132;4.618;2022-11-20T07:58:59;19.47;;;10.13;;
60203;SDS011;46068;52.132;4.618;2022-11-20T08:01:25;21.10;;;10.60;;
60203;SDS011;46068;52.132;4.618;2022-11-20T08:03:51;17.53;;;10.07;;
60203;SDS011;46068;52.132;4.618;2022-11-20T08:06:18;16.77;;;9.37;;
60203;SDS011;46068;52.132;4.618;2022-11-20T08:08:45;18.43;;;9.70;;
60203;SDS011;46068;52.132;4.618;2022-11-20T08:11:12;19.47;;;10.27;;
60203;SDS011;46068;52.132;4.618;2022-11-20T08:13:56;17.83;;;9.87;;
60203;SDS011;46068;52.132;4.618;2022-11-20T08:16:37;20.40;;;10.33;;
60203;SDS011;46068;52.132;4.618;2022-11-20T08:19:04;19.40;;;9.83;;
60203;SDS011;46068;52.132;4.618;2022-11-20T08:21:30;22.10;;;11.17;;
60203;SDS011;46068;52.132;4.618;2022-11-20T08:23:57;20.23;;;9.93;;
60203;SDS011;46068;52.132;4.618;2022-11-20T08:26:25;20.27;;;10.60;;
60203;SDS011;46068;52.132;4.618;2022-11-20T08:28:53;19.07;;;10.00;;
60203;SDS011;46068;52.132;4.618;2022-11-20T08:31:19;19.60;;;10.37;;
60203;SDS011;46068;52.132;4.618;2022-11-20T08:33:45;23.70;;;10.07;;
60203;SDS011;46068;52.132;4.618;2022-11-20T08:36:12;20.00;;;9.70;;
60203;SDS011;46068;52.132;4.618;2022-11-20T08:38:38;20.03;;;10.57;;
60203;SDS011;46068;52.132;4.618;2022-11-20T08:41:04;20.97;;;10.63;;
60203;SDS011;46068;52.132;4.618;2022-11-20T08:43:50;22.77;;;10.83;;
60203;SDS011;46068;52.132;4.618;2022-11-20T08:46:17;21.60;;;10.63;;
60203;SDS011;46068;52.132;4.618;2022-11-20T08:48:43;20.23;;;10.93;;
60203;SDS011;46068;52.132;4.618;2022-11-20T08:51:10;23.03;;;11.60;;
60203;SDS011;46068;52.132;4.618;2022-11-20T08:53:36;21.83;;;10.83;;
60203;SDS011;46068;52.132;4.618;2022-11-20T08:56:03;22.57;;;11.13;;
60203;SDS011;46068;52.132;4.618;2022-11-20T08:58:29;21.13;;;11.37;;
60203;SDS011;46068;52.132;4.618;2022-11-20T09:00:57;20.67;;;11.43;;
60203;SDS011;46068;52.132;4.618;2022-11-20T09:03:23;22.57;;;11.10;;
60203;SDS011;46068;52.132;4.618;2022-11-20T09:05:55;20.20;;;10.53;;
60203;SDS011;46068;52.132;4.618;2022-11-20T09:08:22;21.37;;;11.30;;
60203;SDS011;46068;52.132;4.618;2022-11-20T09:10:50;20.60;;;11.27;;
60203;SDS011;46068;52.132;4.618;2022-11-20T09:13:16;19.17;;;10.43;;
60203;SDS011;46068;52.132;4.618;2022-11-20T09:15:43;22.73;;;11.50;;
60203;SDS011;46068;52.132;4.618;2022-11-20T09:18:10;22.00;;;12.33;;
60203;SDS011;46068;52.132;4.618;2022-11-20T09:20:37;21.47;;;12.57;;
60203;SDS011;46068;52.132;4.618;2022-11-20T09:23:03;22.93;;;11.90;;
60203;SDS011;46068;52.132;4.618;2022-11-20T09:25:29;25.17;;;11.70;;
60203;SDS011;46068;52.132;4.618;2022-11-20T09:27:55;22.20;;;11.87;;
60203;SDS011;46068;52.132;4.618;2022-11-20T09:30:22;22.77;;;12.23;;
60203;SDS011;46068;52.132;4.618;2022-11-20T09:32:48;23.80;;;11.97;;
60203;SDS011;46068;52.132;4.618;2022-11-20T09:35:16;21.00;;;11.57;;
60203;SDS011;46068;52.132;4.618;2022-11-20T09:37:42;23.00;;;12.97;;
60203;SDS011;46068;52.132;4.618;2022-11-20T09:40:09;24.17;;;12.37;;
60203;SDS011;46068;52.132;4.618;2022-11-20T09:42:44;22.50;;;12.07;;
60203;SDS011;46068;52.132;4.618;2022-11-20T09:45:16;21.87;;;11.30;;
60203;SDS011;46068;52.132;4.618;2022-11-20T09:47:48;22.83;;;12.23;;
60203;SDS011;46068;52.132;4.618;2022-11-20T09:50:23;21.53;;;11.37;;
60203;SDS011;46068;52.132;4.618;2022-11-20T09:52:56;24.70;;;12.67;;
60203;SDS011;46068;52.132;4.618;2022-11-20T09:55:25;21.57;;;11.93;;
60203;SDS011;46068;52.132;4.618;2022-11-20T09:57:53;21.90;;;12.57;;
60203;SDS011;46068;52.132;4.618;2022-11-20T10:00:19;25.17;;;12.23;;
60203;SDS011;46068;52.132;4.618;2022-11-20T10:02:48;23.37;;;12.27;;
60203;SDS011;46068;52.132;4.618;2022-11-20T10:05:18;21.33;;;12.10;;
60203;SDS011;46068;52.132;4.618;2022-11-20T10:07:50;24.70;;;12.50;;
60203;SDS011;46068;52.132;4.618;2022-11-20T10:10:21;22.37;;;11.53;;
60203;SDS011;46068;52.132;4.618;2022-11-20T10:12:56;21.47;;;12.47;;
60203;SDS011;46068;52.132;4.618;2022-11-20T10:15:29;23.07;;;11.20;;
60203;SDS011;46068;52.132;4.618;2022-11-20T10:18:00;23.07;;;12.37;;
60203;SDS011;46068;52.132;4.618;2022-11-20T10:20:28;21.37;;;12.27;;
60203;SDS011;46068;52.132;4.618;2022-11-20T10:23:04;23.93;;;13.00;;
60203;SDS011;46068;52.132;4.618;2022-11-20T10:25:38;24.30;;;13.07;;
60203;SDS011;46068;52.132;4.618;2022-11-20T10:28:10;24.47;;;13.50;;
60203;SDS011;46068;52.132;4.618;2022-11-20T10:30:40;25.53;;;13.00;;
60203;SDS011;46068;52.132;4.618;2022-11-20T10:33:11;23.47;;;12.70;;
60203;SDS011;46068;52.132;4.618;2022-11-20T10:35:40;22.10;;;11.87;;
60203;SDS011;46068;52.132;4.618;2022-11-20T10:38:10;23.30;;;12.43;;
60203;SDS011;46068;52.132;4.618;2022-11-20T10:40:40;22.27;;;12.80;;
60203;SDS011;46068;52.132;4.618;2022-11-20T10:43:09;23.50;;;13.47;;
60203;SDS011;46068;52.132;4.618;2022-11-20T10:45:42;27.77;;;14.13;;
60203;SDS011;46068;52.132;4.618;2022-11-20T10:48:10;25.53;;;13.07;;
60203;SDS011;46068;52.132;4.618;2022-11-20T10:50:40;28.97;;;14.20;;
60203;SDS011;46068;52.132;4.618;2022-11-20T10:53:16;23.63;;;13.47;;
60203;SDS011;46068;52.132;4.618;2022-11-20T10:55:46;28.37;;;13.93;;
60203;SDS011;46068;52.132;4.618;2022-11-20T10:58:16;27.93;;;14.07;;
60203;SDS011;46068;52.132;4.618;2022-11-20T11:00:47;26.37;;;13.63;;
60203;SDS011;46068;52.132;4.618;2022-11-20T11:03:18;24.93;;;13.60;;
60203;SDS011;46068;52.132;4.618;2022-11-20T11:05:48;27.63;;;13.87;;
60203;SDS011;46068;52.132;4.618;2022-11-20T11:08:18;26.80;;;13.90;;
60203;SDS011;46068;52.132;4.618;2022-11-20T11:10:46;27.20;;;14.93;;
60203;SDS011;46068;52.132;4.618;2022-11-20T11:13:20;26.73;;;14.70;;
